sensor_id;sensor_type;location;lat;lon;timestamp;temperature;humidity
3202;DHT22;34843;48.744;8.958;2022-11-20T00:02:10;4.80;99.90
3202;DHT22;34843;48.744;8.958;2022-11-20T00:04:36;4.80;99.90
3202;DHT22;34843;48.744;8.958;2022-11-20T00:07:01;4.80;99.90
3202;DHT22;34843;48.744;8.958;2022-11-20T00:09:27;4.80;99.90
3202;DHT22;34843;48.744;8.958;2022-11-20T00:11:52;4.80;99.90
3202;DHT22;34843;48.744;8.958;2022-11-20T00:14:18;4.80;99.90
3202;DHT22;34843;48.744;8.958;2022-11-20T00:16:44;4.80;99.90
3202;DHT22;34843;48.744;8.958;2022-11-20T00:19:09;4.70;99.90
3202;DHT22;34843;48.744;8.958;2022-11-20T00:21:35;4.70;99.90
3202;DHT22;34843;48.744;8.958;2022-11-20T00:24:01;4.70;99.90
3202;DHT22;34843;48.744;8.958;2022-11-20T00:26:27;4.70;99.90
3202;DHT22;34843;48.744;8.958;2022-11-20T00:28:56;4.70;99.90
3202;DHT22;34843;48.744;8.958;2022-11-20T00:31:22;4.70;99.90
3202;DHT22;34843;48.744;8.958;2022-11-20T00:33:48;4.70;99.90
3202;DHT22;34843;48.744;8.958;2022-11-20T00:36:19;4.60;99.90
3202;DHT22;34843;48.744;8.958;2022-11-20T00:38:46;4.60;99.90
3202;DHT22;34843;48.744;8.958;2022-11-20T00:41:14;4.70;99.90
3202;DHT22;34843;48.744;8.958;2022-11-20T00:43:40;4.70;99.90
3202;DHT22;34843;48.744;8.958;2022-11-20T00:46:08;4.70;99.90
3202;DHT22;34843;48.744;8.958;2022-11-20T00:48:34;4.70;99.90
3202;DHT22;34843;48.744;8.958;2022-11-20T00:51:00;4.70;99.90
3202;DHT22;34843;48.744;8.958;2022-11-20T00:53:26;4.70;99.90
3202;DHT22;34843;48.744;8.958;2022-11-20T00:56:02;4.70;99.90
3202;DHT22;34843;48.744;8.958;2022-11-20T00:58:37;4.60;99.90
3202;DHT22;34843;48.744;8.958;2022-11-20T01:01:11;4.60;99.90
3202;DHT22;34843;48.744;8.958;2022-11-20T01:03:39;4.70;99.90
3202;DHT22;34843;48.744;8.958;2022-11-20T01:06:19;4.70;99.90
3202;DHT22;34843;48.744;8.958;2022-11-20T01:08:45;4.60;99.90
3202;DHT22;34843;48.744;8.958;2022-11-20T01:11:35;4.60;99.90
3202;DHT22;34843;48.744;8.958;2022-11-20T01:14:01;4.60;99.90
3202;DHT22;34843;48.744;8.958;2022-11-20T01:16:28;4.60;99.90
3202;DHT22;34843;48.744;8.958;2022-11-20T01:18:57;4.60;99.90
3202;DHT22;34843;48.744;8.958;2022-11-20T01:21:23;3.30;99.90
3202;DHT22;34843;48.744;8.958;2022-11-20T01:23:49;4.60;99.90
3202;DHT22;34843;48.744;8.958;2022-11-20T01:26:20;4.50;99.90
3202;DHT22;34843;48.744;8.958;2022-11-20T01:28:47;4.50;99.90
3202;DHT22;34843;48.744;8.958;2022-11-20T01:31:14;4.40;99.90
3202;DHT22;34843;48.744;8.958;2022-11-20T01:33:40;4.40;99.90
3202;DHT22;34843;48.744;8.958;2022-11-20T01:36:07;4.30;99.90
3202;DHT22;34843;48.744;8.958;2022-11-20T01:38:33;4.30;99.90
3202;DHT22;34843;48.744;8.958;2022-11-20T01:40:59;4.20;99.90
3202;DHT22;34843;48.744;8.958;2022-11-20T01:43:25;4.20;99.90
3202;DHT22;34843;48.744;8.958;2022-11-20T01:46:12;4.10;99.90
3202;DHT22;34843;48.744;8.958;2022-11-20T01:48:54;4.00;99.90
3202;DHT22;34843;48.744;8.958;2022-11-20T01:53:47;3.90;99.90
3202;DHT22;34843;48.744;8.958;2022-11-20T01:56:13;3.90;99.90
3202;DHT22;34843;48.744;8.958;2022-11-20T01:58:43;3.90;99.90
3202;DHT22;34843;48.744;8.958;2022-11-20T02:01:10;3.90;99.90
3202;DHT22;34843;48.744;8.958;2022-11-20T02:03:36;3.90;99.90
3202;DHT22;34843;48.744;8.958;2022-11-20T02:06:27;3.80;99.90
3202;DHT22;34843;48.744;8.958;2022-11-20T02:08:54;3.80;99.90
3202;DHT22;34843;48.744;8.958;2022-11-20T02:11:20;3.90;99.90
3202;DHT22;34843;48.744;8.958;2022-11-20T02:13:47;3.80;99.90
3202;DHT22;34843;48.744;8.958;2022-11-20T02:18:42;3.80;99.90
3202;DHT22;34843;48.744;8.958;2022-11-20T02:24:08;3.80;99.90
3202;DHT22;34843;48.744;8.958;2022-11-20T02:27:11;3.80;99.90
3202;DHT22;34843;48.744;8.958;2022-11-20T02:29:52;3.80;99.90
3202;DHT22;34843;48.744;8.958;2022-11-20T02:32:33;3.80;99.90
3202;DHT22;34843;48.744;8.958;2022-11-20T02:37:43;3.80;99.90
3202;DHT22;34843;48.744;8.958;2022-11-20T02:40:10;3.90;99.90
3202;DHT22;34843;48.744;8.958;2022-11-20T02:42:36;4.00;99.90
3202;DHT22;34843;48.744;8.958;2022-11-20T02:45:03;4.10;99.90
3202;DHT22;34843;48.744;8.958;2022-11-20T02:47:29;4.10;99.90
3202;DHT22;34843;48.744;8.958;2022-11-20T02:49:54;4.10;99.90
3202;DHT22;34843;48.744;8.958;2022-11-20T02:52:20;4.10;99.90
3202;DHT22;34843;48.744;8.958;2022-11-20T02:54:45;4.10;99.90
3202;DHT22;34843;48.744;8.958;2022-11-20T02:57:11;4.10;99.90
3202;DHT22;34843;48.744;8.958;2022-11-20T02:59:36;4.10;99.90
3202;DHT22;34843;48.744;8.958;2022-11-20T03:02:02;4.20;99.90
3202;DHT22;34843;48.744;8.958;2022-11-20T03:04:27;4.30;99.90
3202;DHT22;34843;48.744;8.958;2022-11-20T03:06:53;4.30;99.90
3202;DHT22;34843;48.744;8.958;2022-11-20T03:09:18;4.40;99.90
3202;DHT22;34843;48.744;8.958;2022-11-20T03:11:44;4.40;99.90
3202;DHT22;34843;48.744;8.958;2022-11-20T03:14:09;4.40;99.90
3202;DHT22;34843;48.744;8.958;2022-11-20T03:16:35;4.40;99.90
3202;DHT22;34843;48.744;8.958;2022-11-20T03:19:01;4.40;99.90
3202;DHT22;34843;48.744;8.958;2022-11-20T03:21:26;4.30;99.90
3202;DHT22;34843;48.744;8.958;2022-11-20T03:23:53;4.30;99.90
3202;DHT22;34843;48.744;8.958;2022-11-20T03:26:24;4.40;99.90
3202;DHT22;34843;48.744;8.958;2022-11-20T03:28:52;4.30;99.90
3202;DHT22;34843;48.744;8.958;2022-11-20T03:31:21;4.30;99.90
3202;DHT22;34843;48.744;8.958;2022-11-20T03:33:47;4.20;99.90
3202;DHT22;34843;48.744;8.958;2022-11-20T03:36:15;4.10;99.90
3202;DHT22;34843;48.744;8.958;2022-11-20T03:38:41;4.10;99.90
3202;DHT22;34843;48.744;8.958;2022-11-20T03:41:22;4.00;99.90
3202;DHT22;34843;48.744;8.958;2022-11-20T03:43:51;4.00;99.90
3202;DHT22;34843;48.744;8.958;2022-11-20T03:46:18;3.90;99.90
3202;DHT22;34843;48.744;8.958;2022-11-20T03:48:43;3.90;99.90
3202;DHT22;34843;48.744;8.958;2022-11-20T03:51:14;3.90;99.90
3202;DHT22;34843;48.744;8.958;2022-11-20T03:53:42;3.90;99.90
3202;DHT22;34843;48.744;8.958;2022-11-20T03:56:08;4.00;99.90
3202;DHT22;34843;48.744;8.958;2022-11-20T03:58:36;4.00;99.90
3202;DHT22;34843;48.744;8.958;2022-11-20T04:01:12;4.00;99.90
3202;DHT22;34843;48.744;8.958;2022-11-20T04:03:39;4.00;99.90
3202;DHT22;34843;48.744;8.958;2022-11-20T04:06:14;3.90;99.90
3202;DHT22;34843;48.744;8.958;2022-11-20T04:08:40;3.80;99.90
3202;DHT22;34843;48.744;8.958;2022-11-20T04:13:39;3.80;99.90
3202;DHT22;34843;48.744;8.958;2022-11-20T04:16:06;3.80;99.90
3202;DHT22;34843;48.744;8.958;2022-11-20T04:18:32;3.80;99.90
3202;DHT22;34843;48.744;8.958;2022-11-20T04:20:58;3.80;99.90
3202;DHT22;34843;48.744;8.958;2022-11-20T04:23:24;3.90;99.90
3202;DHT22;34843;48.744;8.958;2022-11-20T04:25:50;3.90;99.90
3202;DHT22;34843;48.744;8.958;2022-11-20T04:28:15;3.90;99.90
3202;DHT22;34843;48.744;8.958;2022-11-20T04:30:41;4.00;99.90
3202;DHT22;34843;48.744;8.958;2022-11-20T04:33:07;4.00;99.90
3202;DHT22;34843;48.744;8.958;2022-11-20T04:35:36;4.10;99.90
3202;DHT22;34843;48.744;8.958;2022-11-20T04:38:02;4.10;99.90
3202;DHT22;34843;48.744;8.958;2022-11-20T04:40:28;4.10;99.90
3202;DHT22;34843;48.744;8.958;2022-11-20T04:42:54;4.10;99.90
3202;DHT22;34843;48.744;8.958;2022-11-20T04:45:20;4.10;99.90
3202;DHT22;34843;48.744;8.958;2022-11-20T04:47:45;4.10;99.90
3202;DHT22;34843;48.744;8.958;2022-11-20T04:50:11;4.10;99.90
3202;DHT22;34843;48.744;8.958;2022-11-20T04:52:36;4.10;99.90
3202;DHT22;34843;48.744;8.958;2022-11-20T04:55:02;4.20;99.90
3202;DHT22;34843;48.744;8.958;2022-11-20T04:57:28;4.20;99.90
3202;DHT22;34843;48.744;8.958;2022-11-20T04:59:53;4.20;99.90
3202;DHT22;34843;48.744;8.958;2022-11-20T05:02:19;4.30;99.90
3202;DHT22;34843;48.744;8.958;2022-11-20T05:04:45;4.40;99.90
3202;DHT22;34843;48.744;8.958;2022-11-20T05:07:10;4.40;99.90
3202;DHT22;34843;48.744;8.958;2022-11-20T05:09:36;4.40;99.90
3202;DHT22;34843;48.744;8.958;2022-11-20T05:12:02;4.50;99.90
3202;DHT22;34843;48.744;8.958;2022-11-20T05:14:28;4.50;99.90
3202;DHT22;34843;48.744;8.958;2022-11-20T05:16:53;4.60;99.90
3202;DHT22;34843;48.744;8.958;2022-11-20T05:19:19;4.60;99.90
3202;DHT22;34843;48.744;8.958;2022-11-20T05:21:44;4.70;99.90
3202;DHT22;34843;48.744;8.958;2022-11-20T05:24:10;4.70;99.90
3202;DHT22;34843;48.744;8.958;2022-11-20T05:26:35;4.70;99.90
3202;DHT22;34843;48.744;8.958;2022-11-20T05:29:01;4.70;99.90
3202;DHT22;34843;48.744;8.958;2022-11-20T05:31:27;4.60;99.90
3202;DHT22;34843;48.744;8.958;2022-11-20T05:33:52;4.70;99.90
3202;DHT22;34843;48.744;8.958;2022-11-20T05:36:18;4.60;99.90
3202;DHT22;34843;48.744;8.958;2022-11-20T05:38:44;4.60;99.90
3202;DHT22;34843;48.744;8.958;2022-11-20T05:41:14;4.60;99.90
3202;DHT22;34843;48.744;8.958;2022-11-20T05:43:42;4.70;99.90
3202;DHT22;34843;48.744;8.958;2022-11-20T05:46:10;4.80;99.90
3202;DHT22;34843;48.744;8.958;2022-11-20T05:48:37;4.80;99.90
3202;DHT22;34843;48.744;8.958;2022-11-20T05:51:04;4.80;99.90
3202;DHT22;34843;48.744;8.958;2022-11-20T05:53:32;4.70;99.90
3202;DHT22;34843;48.744;8.958;2022-11-20T05:58:24;4.80;99.90
3202;DHT22;34843;48.744;8.958;2022-11-20T06:00:50;4.70;99.90
3202;DHT22;34843;48.744;8.958;2022-11-20T06:03:15;4.70;99.90
3202;DHT22;34843;48.744;8.958;2022-11-20T06:05:41;4.70;99.90
3202;DHT22;34843;48.744;8.958;2022-11-20T06:08:06;4.70;99.90
3202;DHT22;34843;48.744;8.958;2022-11-20T06:10:32;4.70;99.90
3202;DHT22;34843;48.744;8.958;2022-11-20T06:12:58;4.80;99.90
3202;DHT22;34843;48.744;8.958;2022-11-20T06:15:24;4.80;99.90
3202;DHT22;34843;48.744;8.958;2022-11-20T06:17:52;4.80;99.90
3202;DHT22;34843;48.744;8.958;2022-11-20T06:20:19;4.90;99.90
3202;DHT22;34843;48.744;8.958;2022-11-20T06:22:44;5.00;99.90
3202;DHT22;34843;48.744;8.958;2022-11-20T06:25:10;5.00;99.90
3202;DHT22;34843;48.744;8.958;2022-11-20T06:27:35;5.00;99.90
3202;DHT22;34843;48.744;8.958;2022-11-20T06:30:01;5.10;99.90
3202;DHT22;34843;48.744;8.958;2022-11-20T06:32:26;5.10;99.90
3202;DHT22;34843;48.744;8.958;2022-11-20T06:34:52;5.10;99.90
3202;DHT22;34843;48.744;8.958;2022-11-20T06:37:17;5.20;99.90
3202;DHT22;34843;48.744;8.958;2022-11-20T06:39:43;5.20;99.90
3202;DHT22;34843;48.744;8.958;2022-11-20T06:42:09;5.20;99.90
3202;DHT22;34843;48.744;8.958;2022-11-20T06:44:34;5.20;99.90
3202;DHT22;34843;48.744;8.958;2022-11-20T06:47:00;5.20;99.90
3202;DHT22;34843;48.744;8.958;2022-11-20T06:49:26;5.20;99.90
3202;DHT22;34843;48.744;8.958;2022-11-20T06:51:51;5.20;99.90
3202;DHT22;34843;48.744;8.958;2022-11-20T06:54:17;5.20;99.90
3202;DHT22;34843;48.744;8.958;2022-11-20T06:56:46;5.30;99.90
3202;DHT22;34843;48.744;8.958;2022-11-20T06:59:12;5.20;99.90
3202;DHT22;34843;48.744;8.958;2022-11-20T07:01:38;5.30;99.90
3202;DHT22;34843;48.744;8.958;2022-11-20T07:04:03;5.20;99.90
3202;DHT22;34843;48.744;8.958;2022-11-20T07:06:29;5.30;99.90
3202;DHT22;34843;48.744;8.958;2022-11-20T07:08:55;5.30;99.90
3202;DHT22;34843;48.744;8.958;2022-11-20T07:11:20;5.30;99.90
3202;DHT22;34843;48.744;8.958;2022-11-20T07:13:46;5.40;99.90
3202;DHT22;34843;48.744;8.958;2022-11-20T07:16:11;5.30;99.90
3202;DHT22;34843;48.744;8.958;2022-11-20T07:18:37;5.30;99.90
3202;DHT22;34843;48.744;8.958;2022-11-20T07:21:04;5.30;99.90
3202;DHT22;34843;48.744;8.958;2022-11-20T07:23:30;5.30;99.90
3202;DHT22;34843;48.744;8.958;2022-11-20T07:25:56;5.20;99.90
3202;DHT22;34843;48.744;8.958;2022-11-20T07:28:21;5.20;99.90
3202;DHT22;34843;48.744;8.958;2022-11-20T07:30:51;5.20;99.90
3202;DHT22;34843;48.744;8.958;2022-11-20T07:33:16;5.10;99.90
3202;DHT22;34843;48.744;8.958;2022-11-20T07:35:42;5.10;99.90
3202;DHT22;34843;48.744;8.958;2022-11-20T07:38:07;5.20;99.90
3202;DHT22;34843;48.744;8.958;2022-11-20T07:40:33;5.20;99.90
3202;DHT22;34843;48.744;8.958;2022-11-20T07:42:58;5.40;99.90
3202;DHT22;34843;48.744;8.958;2022-11-20T07:45:24;5.40;99.90
3202;DHT22;34843;48.744;8.958;2022-11-20T07:47:50;5.50;99.90
3202;DHT22;34843;48.744;8.958;2022-11-20T07:50:16;5.60;99.90
3202;DHT22;34843;48.744;8.958;2022-11-20T07:52:42;5.70;99.90
3202;DHT22;34843;48.744;8.958;2022-11-20T07:55:09;5.70;99.90
3202;DHT22;34843;48.744;8.958;2022-11-20T07:57:35;5.80;99.90
3202;DHT22;34843;48.744;8.958;2022-11-20T08:00:00;5.90;99.90
3202;DHT22;34843;48.744;8.958;2022-11-20T08:02:26;6.00;99.90
3202;DHT22;34843;48.744;8.958;2022-11-20T08:04:51;6.00;99.90
3202;DHT22;34843;48.744;8.958;2022-11-20T08:07:17;6.00;99.90
3202;DHT22;34843;48.744;8.958;2022-11-20T08:09:42;6.00;99.90
3202;DHT22;34843;48.744;8.958;2022-11-20T08:12:09;6.00;99.90
3202;DHT22;34843;48.744;8.958;2022-11-20T08:15:00;6.00;99.90
3202;DHT22;34843;48.744;8.958;2022-11-20T08:17:26;6.00;99.90
3202;DHT22;34843;48.744;8.958;2022-11-20T08:19:52;6.00;99.90
3202;DHT22;34843;48.744;8.958;2022-11-20T08:22:17;6.10;99.90
3202;DHT22;34843;48.744;8.958;2022-11-20T08:24:43;6.10;99.90
3202;DHT22;34843;48.744;8.958;2022-11-20T08:27:08;6.10;99.90
3202;DHT22;34843;48.744;8.958;2022-11-20T08:29:34;6.20;99.90
3202;DHT22;34843;48.744;8.958;2022-11-20T08:31:59;6.40;99.90
3202;DHT22;34843;48.744;8.958;2022-11-20T08:34:25;6.40;99.90
3202;DHT22;34843;48.744;8.958;2022-11-20T08:36:50;6.50;99.90
3202;DHT22;34843;48.744;8.958;2022-11-20T08:39:16;6.60;99.90
3202;DHT22;34843;48.744;8.958;2022-11-20T08:41:41;6.60;99.90
3202;DHT22;34843;48.744;8.958;2022-11-20T08:44:07;6.60;99.90
3202;DHT22;34843;48.744;8.958;2022-11-20T08:46:36;6.70;99.90
3202;DHT22;34843;48.744;8.958;2022-11-20T08:49:03;6.80;99.90
3202;DHT22;34843;48.744;8.958;2022-11-20T08:51:30;6.80;99.90
3202;DHT22;34843;48.744;8.958;2022-11-20T08:53:55;6.80;99.90
3202;DHT22;34843;48.744;8.958;2022-11-20T08:56:21;6.90;99.90
3202;DHT22;34843;48.744;8.958;2022-11-20T08:58:46;6.90;99.90
3202;DHT22;34843;48.744;8.958;2022-11-20T09:01:12;6.80;99.90
3202;DHT22;34843;48.744;8.958;2022-11-20T09:03:38;6.80;99.90
3202;DHT22;34843;48.744;8.958;2022-11-20T09:06:05;6.80;99.90
3202;DHT22;34843;48.744;8.958;2022-11-20T09:08:32;6.70;99.90
3202;DHT22;34843;48.744;8.958;2022-11-20T09:10:58;6.80;99.90
3202;DHT22;34843;48.744;8.958;2022-11-20T09:13:26;6.80;99.90
3202;DHT22;34843;48.744;8.958;2022-11-20T09:15:59;6.80;99.90
3202;DHT22;34843;48.744;8.958;2022-11-20T09:18:26;6.80;99.90
3202;DHT22;34843;48.744;8.958;2022-11-20T09:20:56;6.80;99.90
3202;DHT22;34843;48.744;8.958;2022-11-20T09:23:22;6.80;99.90
3202;DHT22;34843;48.744;8.958;2022-11-20T09:25:47;6.80;99.90
3202;DHT22;34843;48.744;8.958;2022-11-20T09:28:13;6.70;99.90
3202;DHT22;34843;48.744;8.958;2022-11-20T09:30:39;6.70;99.90
3202;DHT22;34843;48.744;8.958;2022-11-20T09:33:05;6.80;99.90
3202;DHT22;34843;48.744;8.958;2022-11-20T09:35:31;6.80;99.90
3202;DHT22;34843;48.744;8.958;2022-11-20T09:37:57;6.70;99.90
3202;DHT22;34843;48.744;8.958;2022-11-20T09:40:25;6.60;99.90
3202;DHT22;34843;48.744;8.958;2022-11-20T09:42:56;6.60;99.90
3202;DHT22;34843;48.744;8.958;2022-11-20T09:45:38;6.60;99.90
3202;DHT22;34843;48.744;8.958;2022-11-20T09:54:20;6.60;99.90
3202;DHT22;34843;48.744;8.958;2022-11-20T09:56:53;6.60;99.90
3202;DHT22;34843;48.744;8.958;2022-11-20T09:59:35;6.50;99.90
3202;DHT22;34843;48.744;8.958;2022-11-20T10:02:02;6.50;99.90
3202;DHT22;34843;48.744;8.958;2022-11-20T10:04:34;6.50;99.90
3202;DHT22;34843;48.744;8.958;2022-11-20T10:09:31;6.60;99.90
3202;DHT22;34843;48.744;8.958;2022-11-20T10:12:43;6.50;99.90
3202;DHT22;34843;48.744;8.958;2022-11-20T10:15:27;6.60;99.90
3202;DHT22;34843;48.744;8.958;2022-11-20T10:20:44;6.50;99.90
3202;DHT22;34843;48.744;8.958;2022-11-20T10:23:29;6.50;99.90
3202;DHT22;34843;48.744;8.958;2022-11-20T10:26:17;6.40;99.90
3202;DHT22;34843;48.744;8.958;2022-11-20T10:31:54;6.50;99.90
3202;DHT22;34843;48.744;8.958;2022-11-20T10:34:52;6.40;99.90
3202;DHT22;34843;48.744;8.958;2022-11-20T10:37:25;6.50;99.90
3202;DHT22;34843;48.744;8.958;2022-11-20T10:42:43;6.50;99.90
3202;DHT22;34843;48.744;8.958;2022-11-20T10:47:56;6.60;99.90
3202;DHT22;34843;48.744;8.958;2022-11-20T10:50:27;6.60;99.90
3202;DHT22;34843;48.744;8.958;2022-11-20T10:53:05;6.60;99.90
3202;DHT22;34843;48.744;8.958;2022-11-20T10:55:47;6.60;99.90
3202;DHT22;34843;48.744;8.958;2022-11-20T10:58:34;6.60;99.90
3202;DHT22;34843;48.744;8.958;2022-11-20T11:01:18;6.70;99.90
3202;DHT22;34843;48.744;8.958;2022-11-20T11:03:46;6.80;99.90
3202;DHT22;34843;48.744;8.958;2022-11-20T11:06:34;6.80;99.90
3202;DHT22;34843;48.744;8.958;2022-11-20T11:09:08;6.90;99.90
3202;DHT22;34843;48.744;8.958;2022-11-20T11:11:34;7.00;99.90
3202;DHT22;34843;48.744;8.958;2022-11-20T11:14:11;7.20;99.90
3202;DHT22;34843;48.744;8.958;2022-11-20T11:16:49;7.30;99.90
3202;DHT22;34843;48.744;8.958;2022-11-20T11:19:16;7.40;99.90
3202;DHT22;34843;48.744;8.958;2022-11-20T11:22:10;7.50;99.90
3202;DHT22;34843;48.744;8.958;2022-11-20T11:24:51;7.50;99.90
3202;DHT22;34843;48.744;8.958;2022-11-20T11:27:17;7.50;99.90
3202;DHT22;34843;48.744;8.958;2022-11-20T11:29:43;7.60;99.90
3202;DHT22;34843;48.744;8.958;2022-11-20T11:32:13;7.60;99.90
3202;DHT22;34843;48.744;8.958;2022-11-20T11:34:39;7.60;99.90
3202;DHT22;34843;48.744;8.958;2022-11-20T11:37:10;7.60;99.90
3202;DHT22;34843;48.744;8.958;2022-11-20T11:39:40;7.60;99.90
3202;DHT22;34843;48.744;8.958;2022-11-20T11:42:11;7.50;99.90
3202;DHT22;34843;48.744;8.958;2022-11-20T11:44:44;7.60;99.90
3202;DHT22;34843;48.744;8.958;2022-11-20T11:47:36;7.60;99.90
3202;DHT22;34843;48.744;8.958;2022-11-20T11:50:21;7.70;99.90
3202;DHT22;34843;48.744;8.958;2022-11-20T11:52:53;7.90;99.90
3202;DHT22;34843;48.744;8.958;2022-11-20T11:55:33;8.10;99.90
3202;DHT22;34843;48.744;8.958;2022-11-20T12:00:28;8.50;99.90
3202;DHT22;34843;48.744;8.958;2022-11-20T12:03:08;8.70;99.90
3202;DHT22;34843;48.744;8.958;2022-11-20T12:05:46;8.80;99.90
3202;DHT22;34843;48.744;8.958;2022-11-20T12:08:32;8.90;99.90
3202;DHT22;34843;48.744;8.958;2022-11-20T12:14:19;8.70;99.90
3202;DHT22;34843;48.744;8.958;2022-11-20T12:16:49;8.60;99.90
3202;DHT22;34843;48.744;8.958;2022-11-20T12:19:15;8.40;99.90
3202;DHT22;34843;48.744;8.958;2022-11-20T12:21:47;8.40;99.90
3202;DHT22;34843;48.744;8.958;2022-11-20T12:24:47;8.30;99.90
3202;DHT22;34843;48.744;8.958;2022-11-20T12:35:34;8.10;99.90
3202;DHT22;34843;48.744;8.958;2022-11-20T12:43:53;7.90;99.90
3202;DHT22;34843;48.744;8.958;2022-11-20T12:46:51;7.90;99.90
3202;DHT22;34843;48.744;8.958;2022-11-20T12:49:34;7.90;99.90
3202;DHT22;34843;48.744;8.958;2022-11-20T12:57:36;8.20;99.90
3202;DHT22;34843;48.744;8.958;2022-11-20T13:07:54;8.70;99.90
3202;DHT22;34843;48.744;8.958;2022-11-20T13:13:00;8.70;99.90
3202;DHT22;34843;48.744;8.958;2022-11-20T13:18:09;8.60;99.90
3202;DHT22;34843;48.744;8.958;2022-11-20T13:20:36;8.50;99.90
3202;DHT22;34843;48.744;8.958;2022-11-20T13:23:06;8.40;99.90
3202;DHT22;34843;48.744;8.958;2022-11-20T13:25:33;8.40;99.90
3202;DHT22;34843;48.744;8.958;2022-11-20T13:30:37;8.20;99.90
3202;DHT22;34843;48.744;8.958;2022-11-20T13:33:29;8.00;99.90
3202;DHT22;34843;48.744;8.958;2022-11-20T13:36:07;8.00;99.90
3202;DHT22;34843;48.744;8.958;2022-11-20T13:38:51;7.70;99.90
3202;DHT22;34843;48.744;8.958;2022-11-20T13:41:43;7.40;99.90
3202;DHT22;34843;48.744;8.958;2022-11-20T13:44:34;7.20;99.90
3202;DHT22;34843;48.744;8.958;2022-11-20T13:47:00;7.10;99.90
3202;DHT22;34843;48.744;8.958;2022-11-20T13:49:31;6.90;99.90
3202;DHT22;34843;48.744;8.958;2022-11-20T14:00:17;6.70;99.90
3202;DHT22;34843;48.744;8.958;2022-11-20T14:02:45;6.70;99.90
3202;DHT22;34843;48.744;8.958;2022-11-20T14:05:20;6.80;99.90
3202;DHT22;34843;48.744;8.958;2022-11-20T14:07:47;6.80;99.90
3202;DHT22;34843;48.744;8.958;2022-11-20T14:10:39;6.90;99.90
3202;DHT22;34843;48.744;8.958;2022-11-20T14:13:31;6.90;99.90
3202;DHT22;34843;48.744;8.958;2022-11-20T14:15:57;6.90;99.90
3202;DHT22;34843;48.744;8.958;2022-11-20T14:18:26;6.90;99.90
3202;DHT22;34843;48.744;8.958;2022-11-20T14:20:52;7.00;99.90
3202;DHT22;34843;48.744;8.958;2022-11-20T14:23:25;7.00;99.90
3202;DHT22;34843;48.744;8.958;2022-11-20T14:25:51;7.10;99.90
3202;DHT22;34843;48.744;8.958;2022-11-20T14:28:43;7.00;99.90
3202;DHT22;34843;48.744;8.958;2022-11-20T14:31:21;7.10;99.90
3202;DHT22;34843;48.744;8.958;2022-11-20T14:33:47;7.10;99.90
3202;DHT22;34843;48.744;8.958;2022-11-20T14:36:18;7.10;99.90
3202;DHT22;34843;48.744;8.958;2022-11-20T14:38:45;7.20;99.90
3202;DHT22;34843;48.744;8.958;2022-11-20T14:41:19;7.10;99.90
3202;DHT22;34843;48.744;8.958;2022-11-20T14:43:51;7.20;99.90
3202;DHT22;34843;48.744;8.958;2022-11-20T14:46:18;7.20;99.90
3202;DHT22;34843;48.744;8.958;2022-11-20T14:48:46;7.20;99.90
3202;DHT22;34843;48.744;8.958;2022-11-20T14:53:53;7.10;99.90
3202;DHT22;34843;48.744;8.958;2022-11-20T14:56:23;7.10;99.90
3202;DHT22;34843;48.744;8.958;2022-11-20T14:58:57;7.20;99.90
3202;DHT22;34843;48.744;8.958;2022-11-20T15:01:30;7.10;99.90
3202;DHT22;34843;48.744;8.958;2022-11-20T15:04:07;7.10;99.90
3202;DHT22;34843;48.744;8.958;2022-11-20T15:06:34;7.00;99.90
3202;DHT22;34843;48.744;8.958;2022-11-20T15:09:02;7.00;99.90
3202;DHT22;34843;48.744;8.958;2022-11-20T15:11:30;6.90;99.90
3202;DHT22;34843;48.744;8.958;2022-11-20T15:13:57;6.90;99.90
3202;DHT22;34843;48.744;8.958;2022-11-20T15:16:24;6.80;99.90
3202;DHT22;34843;48.744;8.958;2022-11-20T15:18:50;6.70;99.90
3202;DHT22;34843;48.744;8.958;2022-11-20T15:21:18;6.60;99.90
3202;DHT22;34843;48.744;8.958;2022-11-20T15:23:44;6.60;99.90
3202;DHT22;34843;48.744;8.958;2022-11-20T15:26:11;6.50;99.90
3202;DHT22;34843;48.744;8.958;2022-11-20T15:28:42;6.50;99.90
3202;DHT22;34843;48.744;8.958;2022-11-20T15:31:13;6.40;99.90
3202;DHT22;34843;48.744;8.958;2022-11-20T15:33:39;6.40;99.90
3202;DHT22;34843;48.744;8.958;2022-11-20T15:36:04;6.30;99.90
3202;DHT22;34843;48.744;8.958;2022-11-20T15:38:30;6.20;99.90
3202;DHT22;34843;48.744;8.958;2022-11-20T15:40:56;6.20;99.90
3202;DHT22;34843;48.744;8.958;2022-11-20T15:43:21;6.10;99.90
3202;DHT22;34843;48.744;8.958;2022-11-20T15:46:29;6.00;99.90
3202;DHT22;34843;48.744;8.958;2022-11-20T15:48:51;6.00;99.90
3202;DHT22;34843;48.744;8.958;2022-11-20T15:51:26;5.90;99.90
3202;DHT22;34843;48.744;8.958;2022-11-20T15:53:52;5.80;99.90
3202;DHT22;34843;48.744;8.958;2022-11-20T15:56:17;5.80;99.90
3202;DHT22;34843;48.744;8.958;2022-11-20T15:58:43;5.80;99.90
3202;DHT22;34843;48.744;8.958;2022-11-20T16:01:17;5.80;99.90
3202;DHT22;34843;48.744;8.958;2022-11-20T16:03:43;5.80;99.90
3202;DHT22;34843;48.744;8.958;2022-11-20T16:06:09;5.80;99.90
3202;DHT22;34843;48.744;8.958;2022-11-20T16:08:34;5.90;99.90
3202;DHT22;34843;48.744;8.958;2022-11-20T16:11:00;5.90;99.90
3202;DHT22;34843;48.744;8.958;2022-11-20T16:13:26;5.90;99.90
3202;DHT22;34843;48.744;8.958;2022-11-20T16:16:33;5.90;99.90
3202;DHT22;34843;48.744;8.958;2022-11-20T16:18:59;5.90;99.90
3202;DHT22;34843;48.744;8.958;2022-11-20T16:21:25;6.00;99.90
3202;DHT22;34843;48.744;8.958;2022-11-20T16:24:00;6.00;99.90
3202;DHT22;34843;48.744;8.958;2022-11-20T16:26:26;5.90;99.90
3202;DHT22;34843;48.744;8.958;2022-11-20T16:28:52;6.00;99.90
3202;DHT22;34843;48.744;8.958;2022-11-20T16:31:19;5.90;99.90
3202;DHT22;34843;48.744;8.958;2022-11-20T16:33:52;6.00;99.90
3202;DHT22;34843;48.744;8.958;2022-11-20T16:36:19;6.00;99.90
3202;DHT22;34843;48.744;8.958;2022-11-20T16:38:45;5.90;99.90
3202;DHT22;34843;48.744;8.958;2022-11-20T16:41:11;6.00;99.90
3202;DHT22;34843;48.744;8.958;2022-11-20T16:43:48;6.00;99.90
3202;DHT22;34843;48.744;8.958;2022-11-20T16:46:16;6.00;99.90
3202;DHT22;34843;48.744;8.958;2022-11-20T16:48:41;6.00;99.90
3202;DHT22;34843;48.744;8.958;2022-11-20T16:51:09;6.10;99.90
3202;DHT22;34843;48.744;8.958;2022-11-20T16:53:35;6.00;99.90
3202;DHT22;34843;48.744;8.958;2022-11-20T16:56:11;6.00;99.90
3202;DHT22;34843;48.744;8.958;2022-11-20T16:58:38;6.00;99.90
3202;DHT22;34843;48.744;8.958;2022-11-20T17:01:08;6.00;99.90
3202;DHT22;34843;48.744;8.958;2022-11-20T17:03:36;6.10;99.90
3202;DHT22;34843;48.744;8.958;2022-11-20T17:06:13;6.10;99.90
3202;DHT22;34843;48.744;8.958;2022-11-20T17:08:39;6.10;99.90
3202;DHT22;34843;48.744;8.958;2022-11-20T17:11:11;6.10;99.90
3202;DHT22;34843;48.744;8.958;2022-11-20T17:13:37;6.10;99.90
3202;DHT22;34843;48.744;8.958;2022-11-20T17:16:05;6.10;99.90
3202;DHT22;34843;48.744;8.958;2022-11-20T17:18:31;6.10;99.90
3202;DHT22;34843;48.744;8.958;2022-11-20T17:20:58;6.10;99.90
3202;DHT22;34843;48.744;8.958;2022-11-20T17:23:27;6.10;99.90
3202;DHT22;34843;48.744;8.958;2022-11-20T17:26:03;6.10;99.90
3202;DHT22;34843;48.744;8.958;2022-11-20T17:28:29;6.20;99.90
3202;DHT22;34843;48.744;8.958;2022-11-20T17:31:04;6.20;99.90
3202;DHT22;34843;48.744;8.958;2022-11-20T17:33:30;6.20;99.90
3202;DHT22;34843;48.744;8.958;2022-11-20T17:35:56;6.20;99.90
3202;DHT22;34843;48.744;8.958;2022-11-20T17:38:22;6.20;99.90
3202;DHT22;34843;48.744;8.958;2022-11-20T17:40:48;6.20;99.90
3202;DHT22;34843;48.744;8.958;2022-11-20T17:43:13;6.20;99.90
3202;DHT22;34843;48.744;8.958;2022-11-20T17:45:39;6.30;99.90